createdAt,value
2018-09-09T17:24:39.505Z,5.62
2018-09-09T17:25:41.687Z,5.78
2018-09-09T17:26:43.886Z,6.20
2018-09-09T17:27:46.026Z,6.10
2018-09-09T17:28:48.298Z,6.30
2018-09-09T17:29:50.461Z,6.05
2018-09-09T17:30:52.671Z,5.03
2018-09-09T17:31:54.834Z,5.20
2018-09-09T17:32:56.991Z,5.15
2018-09-09T17:33:59.149Z,4.67
2018-09-09T17:35:01.313Z,8.35
2018-09-09T17:36:03.508Z,5.67
2018-09-09T17:37:05.657Z,6.47
2018-09-09T17:38:07.810Z,6.22
2018-09-09T17:39:10.664Z,7.20
2018-09-09T17:40:13.050Z,5.83
2018-09-09T17:41:15.240Z,8.45
2018-09-09T17:42:17.385Z,4.87
2018-09-09T17:43:19.761Z,5.53
2018-09-09T17:44:21.929Z,4.97
2018-09-09T17:45:24.106Z,6.62
2018-09-09T17:46:26.298Z,8.53
2018-09-09T17:47:28.498Z,5.22
2018-09-09T17:48:30.679Z,5.92
2018-09-09T17:49:32.911Z,6.20
2018-09-09T17:50:35.090Z,6.37
2018-09-09T17:51:37.239Z,7.00
2018-09-09T17:52:39.400Z,6.95
2018-09-09T17:53:41.562Z,5.87
2018-09-09T17:54:43.703Z,6.67
2018-09-09T17:55:46.311Z,6.00
2018-09-09T17:56:48.480Z,5.08
2018-09-09T17:57:50.644Z,7.20
2018-09-09T17:58:52.838Z,7.10
2018-09-09T17:59:55.261Z,6.08
2018-09-09T18:00:58.485Z,5.83
2018-09-09T18:02:00.658Z,6.25
2018-09-09T18:03:02.911Z,5.35
2018-09-09T18:04:05.243Z,7.15
2018-09-09T18:05:08.345Z,5.67
2018-09-09T18:06:10.510Z,5.08
2018-09-09T18:07:12.679Z,5.45
2018-09-09T18:08:14.874Z,7.87
2018-09-09T18:09:17.049Z,5.78
2018-09-09T18:10:19.205Z,8.33
2018-09-09T18:11:21.413Z,8.03
2018-09-09T18:12:23.770Z,8.20
2018-09-09T18:13:25.928Z,6.33
2018-09-09T18:14:28.090Z,5.85
2018-09-09T18:15:30.294Z,5.75
2018-09-09T18:16:32.567Z,9.13
2018-09-09T18:17:34.793Z,6.47
2018-09-09T18:18:36.949Z,5.65
2018-09-09T18:19:39.658Z,6.37
2018-09-09T18:20:42.589Z,7.03
2018-09-09T18:21:45.237Z,7.40
2018-09-09T18:22:47.435Z,6.25
2018-09-09T18:23:49.777Z,7.08
2018-09-09T18:24:51.948Z,7.40
2018-09-09T18:25:54.101Z,6.20
2018-09-09T18:26:56.330Z,8.03
2018-09-09T18:27:58.513Z,5.50
2018-09-09T18:29:02.250Z,5.67
2018-09-09T18:30:04.478Z,5.42
2018-09-09T18:31:06.625Z,5.35
2018-09-09T18:32:08.818Z,6.97
2018-09-09T18:33:12.466Z,5.65
2018-09-09T18:34:14.654Z,5.65
2018-09-09T18:35:16.828Z,6.10
2018-09-09T18:36:18.993Z,8.13
2018-09-09T18:37:21.125Z,4.97
2018-09-09T18:38:23.426Z,6.60
2018-09-09T18:39:25.611Z,6.70
2018-09-09T18:40:28.866Z,6.35
2018-09-09T18:41:31.019Z,6.15
2018-09-09T18:42:33.141Z,6.03
2018-09-09T18:43:35.311Z,6.08
2018-09-09T18:44:37.474Z,5.00
2018-09-09T18:45:39.636Z,6.20
2018-09-09T18:46:41.717Z,7.03
2018-09-09T18:47:43.867Z,5.95
2018-09-09T18:48:46.003Z,6.35
2018-09-09T18:49:48.144Z,9.50
2018-09-09T18:50:51.039Z,6.20
2018-09-09T18:51:54.553Z,6.75
2018-09-09T18:52:57.224Z,6.70
2018-09-09T18:53:59.437Z,6.72
2018-09-09T18:55:01.553Z,8.03
2018-09-09T18:56:05.540Z,6.80
2018-09-09T18:57:09.669Z,6.58
2018-09-09T18:58:12.608Z,6.45
2018-09-09T18:59:14.786Z,7.12
2018-09-09T19:00:16.916Z,6.10
2018-09-09T19:01:19.084Z,7.40
2018-09-09T19:02:21.252Z,6.15
2018-09-09T19:03:23.395Z,7.62
2018-09-09T19:04:25.547Z,6.03
2018-09-09T19:05:27.725Z,7.60
2018-09-09T19:06:29.942Z,8.75
2018-09-09T19:07:32.228Z,6.20
2018-09-09T19:08:34.462Z,13.35
2018-09-09T19:09:36.634Z,9.05
2018-09-09T19:10:38.792Z,8.65
2018-09-09T19:11:40.925Z,10.20
2018-09-09T19:12:43.079Z,9.33
2018-09-09T19:13:45.240Z,8.70
2018-09-09T19:14:47.918Z,6.55
2018-09-09T19:15:50.090Z,7.42
2018-09-09T19:16:52.254Z,6.97
2018-09-09T19:17:54.443Z,6.17
2018-09-09T19:18:56.602Z,6.05
2018-09-09T19:19:58.745Z,5.72
2018-09-09T19:21:00.899Z,6.40
2018-09-09T19:22:03.303Z,6.72
2018-09-09T19:23:05.472Z,7.97
2018-09-09T19:24:10.762Z,6.58
2018-09-09T19:25:13.015Z,5.78
2018-09-09T19:26:15.165Z,7.47
2018-09-09T19:27:17.551Z,6.30
2018-09-09T19:28:19.698Z,6.53
2018-09-09T19:29:21.884Z,8.75
2018-09-09T19:30:24.101Z,8.25
2018-09-09T19:31:26.655Z,7.05
2018-09-09T19:32:28.861Z,8.20
2018-09-09T19:33:30.998Z,8.53
2018-09-09T19:34:33.213Z,7.78
2018-09-09T19:35:35.439Z,7.55
2018-09-09T19:36:37.650Z,7.78
2018-09-09T19:37:39.800Z,8.45
2018-09-09T19:38:41.999Z,6.45
2018-09-09T19:39:44.129Z,7.03
2018-09-09T19:40:46.279Z,8.30
2018-09-09T19:41:48.448Z,6.08
2018-09-09T19:42:50.581Z,8.43
2018-09-09T19:43:52.891Z,7.10
2018-09-09T19:44:55.061Z,7.70
2018-09-09T19:46:07.051Z,8.93
2018-09-09T19:47:09.317Z,7.75
2018-09-09T19:48:11.777Z,6.80
2018-09-09T19:49:17.177Z,7.40
2018-09-09T19:50:19.379Z,7.53
2018-09-09T19:51:21.541Z,9.20
2018-09-09T19:52:23.834Z,7.92
2018-09-09T19:53:30.720Z,9.15
2018-09-09T19:54:33.117Z,8.20
2018-09-09T19:55:35.348Z,8.85
2018-09-09T19:56:37.570Z,7.00
2018-09-09T19:57:39.727Z,7.62
2018-09-09T19:58:52.909Z,9.65
2018-09-09T20:00:02.103Z,8.10
2018-09-09T20:01:04.279Z,10.45
2018-09-09T20:02:06.550Z,9.63
2018-09-09T20:03:09.320Z,8.33
2018-09-09T20:04:18.192Z,7.70
2018-09-09T20:05:20.973Z,8.10
2018-09-09T20:06:23.170Z,7.37
2018-09-09T20:07:25.446Z,8.20
2018-09-09T20:08:27.982Z,7.50
2018-09-09T20:09:34.316Z,9.65
2018-09-09T20:10:36.472Z,8.05
2018-09-09T20:11:38.635Z,7.20
2018-09-09T20:12:40.787Z,8.50
2018-09-09T20:13:43.137Z,8.35
2018-09-09T20:14:45.345Z,7.45
2018-09-09T20:15:47.782Z,6.53
2018-09-09T20:16:50.578Z,6.92
2018-09-09T20:17:53.828Z,8.13
2018-09-09T20:18:56.074Z,8.60
2018-09-09T20:19:58.469Z,8.83
2018-09-09T20:21:00.857Z,8.00
2018-09-09T20:22:02.997Z,8.55
2018-09-09T20:23:05.174Z,7.03
2018-09-09T20:24:07.617Z,7.97
2018-09-09T20:25:09.813Z,7.03
2018-09-09T20:26:12.006Z,8.45
2018-09-09T20:27:14.141Z,8.00
2018-09-09T20:28:16.291Z,7.42
2018-09-09T20:29:18.423Z,7.37
2018-09-09T20:30:20.813Z,8.10
2018-09-09T20:31:23.009Z,8.73
2018-09-09T20:32:25.189Z,7.50
2018-09-09T20:33:27.628Z,8.08
2018-09-09T20:34:29.953Z,9.03
2018-09-09T20:35:32.067Z,8.35
2018-09-09T20:36:34.273Z,7.80
2018-09-09T20:37:36.452Z,8.88
2018-09-09T20:38:38.669Z,7.35
2018-09-09T20:39:40.772Z,6.90
2018-09-09T20:40:42.892Z,8.93
2018-09-09T20:41:45.057Z,8.80
2018-09-09T20:42:47.243Z,8.48
2018-09-09T20:43:51.060Z,9.73
2018-09-09T20:44:54.956Z,8.93
2018-09-09T20:45:57.103Z,10.40
2018-09-09T20:46:59.239Z,9.85
2018-09-09T20:48:01.398Z,9.55
2018-09-09T20:49:04.217Z,9.65
2018-09-09T20:50:06.369Z,9.38
2018-09-09T20:51:08.561Z,8.90
2018-09-09T20:52:10.871Z,9.95
2018-09-09T20:53:13.002Z,10.35
2018-09-09T20:54:15.172Z,9.90
2018-09-09T20:55:17.711Z,12.78
2018-09-09T20:56:20.150Z,9.50
2018-09-09T20:57:22.330Z,8.95
2018-09-09T20:58:24.513Z,8.63
2018-09-09T20:59:26.671Z,8.70
2018-09-09T21:00:28.954Z,8.90
2018-09-09T21:01:30.991Z,7.80
2018-09-09T21:02:33.140Z,8.83
2018-09-09T21:03:35.301Z,8.00
2018-09-09T21:04:37.471Z,9.33
2018-09-09T21:05:39.853Z,10.75
2018-09-09T21:06:41.990Z,8.28
2018-09-09T21:07:44.130Z,9.63
2018-09-09T21:08:46.270Z,8.53
2018-09-09T21:09:48.451Z,8.93
2018-09-09T21:10:50.843Z,9.53
2018-09-09T21:11:53.017Z,10.03
2018-09-09T21:12:55.186Z,11.18
2018-09-09T21:13:57.317Z,6.95
2018-09-09T21:15:02.728Z,7.42
2018-09-09T21:16:05.420Z,9.50
2018-09-09T21:17:07.575Z,11.10
2018-09-09T21:18:09.712Z,9.43
2018-09-09T21:19:11.833Z,7.45
2018-09-09T21:20:13.973Z,10.18
2018-09-09T21:21:16.312Z,10.95
2018-09-09T21:22:18.477Z,9.93
2018-09-09T21:23:20.642Z,8.90
2018-09-09T21:24:23.011Z,8.95
2018-09-09T21:25:25.141Z,9.15
2018-09-09T21:26:27.370Z,10.03
2018-09-09T21:27:29.486Z,8.65
2018-09-09T21:28:31.642Z,8.43
2018-09-09T21:29:33.787Z,9.33
2018-09-09T21:30:36.045Z,9.18
2018-09-09T21:31:38.304Z,9.60
2018-09-09T21:32:41.209Z,9.98
2018-09-09T21:33:43.459Z,7.22
2018-09-09T21:34:45.598Z,10.20
2018-09-09T21:35:47.738Z,9.20
2018-09-09T21:36:49.922Z,8.55
2018-09-09T21:37:52.118Z,9.98
2018-09-09T21:38:54.265Z,8.20
2018-09-09T21:39:56.701Z,9.30
2018-09-09T21:40:58.899Z,9.75
2018-09-09T21:42:01.025Z,7.92
2018-09-09T21:43:03.226Z,8.83
2018-09-09T21:44:05.534Z,10.55
2018-09-09T21:45:07.705Z,10.05
2018-09-09T21:46:09.906Z,8.58
2018-09-09T21:47:12.038Z,10.25
2018-09-09T21:48:14.191Z,8.00
2018-09-09T21:49:16.453Z,9.05
2018-09-09T21:50:18.957Z,8.40
2018-09-09T21:51:21.115Z,9.85
2018-09-09T21:52:24.289Z,9.80
2018-09-09T21:53:26.431Z,10.38
2018-09-09T21:54:28.585Z,8.80
2018-09-09T21:55:30.694Z,9.30
2018-09-09T21:56:32.813Z,9.63
2018-09-09T21:57:34.947Z,10.08
2018-09-09T21:58:37.569Z,8.48
2018-09-09T21:59:39.738Z,9.50
2018-09-09T22:00:47.547Z,8.63
2018-09-09T22:01:55.449Z,9.13
2018-09-09T22:02:57.600Z,8.40
2018-09-09T22:03:59.758Z,8.90
2018-09-09T22:05:01.860Z,9.08
2018-09-09T22:06:04.076Z,8.13
2018-09-09T22:07:11.624Z,9.28
2018-09-09T22:08:17.017Z,10.75
2018-09-09T22:09:19.405Z,9.80
2018-09-09T22:10:21.537Z,9.40
2018-09-09T22:11:23.945Z,10.60
2018-09-09T22:12:26.342Z,8.65
2018-09-09T22:13:28.469Z,9.03
2018-09-09T22:14:30.801Z,10.38
2018-09-09T22:15:32.994Z,8.00
2018-09-09T22:16:35.172Z,8.20
2018-09-09T22:17:37.346Z,9.03
2018-09-09T22:18:39.562Z,10.00
2018-09-09T22:19:41.709Z,9.05
2018-09-09T22:20:43.907Z,10.68
2018-09-09T22:21:47.676Z,10.00
2018-09-09T22:22:49.793Z,9.60
2018-09-09T22:23:51.918Z,9.73
2018-09-09T22:24:54.061Z,8.50
2018-09-09T22:25:56.170Z,9.40
2018-09-09T22:26:58.281Z,11.57
2018-09-09T22:28:00.457Z,10.25
2018-09-09T22:29:02.942Z,9.33
2018-09-09T22:30:05.833Z,7.40
2018-09-09T22:31:08.177Z,10.63
2018-09-09T22:32:10.517Z,7.62
2018-09-09T22:33:12.639Z,9.65
2018-09-09T22:34:15.264Z,9.45
2018-09-09T22:35:17.699Z,10.00
2018-09-09T22:36:19.822Z,10.63
2018-09-09T22:37:21.983Z,9.93
2018-09-09T22:38:24.101Z,10.20
2018-09-09T22:39:26.236Z,9.15
2018-09-09T22:40:28.380Z,11.97
2018-09-09T22:41:30.760Z,8.18
2018-09-09T22:42:32.966Z,9.55
2018-09-09T22:43:35.308Z,8.93
2018-09-09T22:44:37.437Z,8.80
2018-09-09T22:45:40.722Z,8.50
2018-09-09T22:46:42.981Z,10.75
2018-09-09T22:47:45.112Z,8.43
2018-09-09T22:48:47.257Z,11.85
2018-09-09T22:49:49.400Z,11.88
2018-09-09T22:50:51.517Z,10.88
2018-09-09T22:51:53.660Z,10.35
2018-09-09T22:52:56.014Z,8.33
2018-09-09T22:53:58.441Z,9.38
2018-09-09T22:55:00.602Z,9.63
2018-09-09T22:56:02.741Z,10.00
2018-09-09T22:57:04.910Z,8.78
2018-09-09T22:58:07.249Z,11.40
2018-09-09T22:59:09.402Z,10.28
2018-09-09T23:00:11.551Z,9.88
2018-09-09T23:01:13.685Z,11.25
2018-09-09T23:02:15.857Z,8.63
2018-09-09T23:03:17.985Z,11.33
2018-09-09T23:04:20.118Z,10.78
2018-09-09T23:05:22.368Z,11.45
2018-09-09T23:06:24.455Z,8.65
2018-09-09T23:07:26.605Z,8.40
2018-09-09T23:08:28.721Z,8.75
2018-09-09T23:09:30.837Z,10.38
2018-09-09T23:10:32.997Z,10.25
2018-09-09T23:11:35.170Z,12.65
2018-09-09T23:12:37.526Z,10.20
2018-09-09T23:13:40.094Z,10.48
2018-09-09T23:14:42.597Z,11.38
2018-09-09T23:15:44.745Z,10.05
2018-09-09T23:16:47.106Z,10.65
2018-09-09T23:17:49.278Z,12.68
2018-09-09T23:18:51.466Z,11.60
2018-09-09T23:19:53.593Z,12.37
2018-09-09T23:20:55.754Z,10.72
2018-09-09T23:21:57.917Z,13.70
2018-09-09T23:23:00.055Z,11.00
2018-09-09T23:24:02.338Z,10.43
2018-09-09T23:25:04.535Z,11.55
2018-09-09T23:26:06.911Z,9.53
2018-09-09T23:27:09.113Z,10.60
2018-09-09T23:28:11.240Z,12.45
2018-09-09T23:29:13.601Z,11.73
2018-09-09T23:30:15.798Z,12.43
2018-09-09T23:31:17.918Z,16.50
2018-09-09T23:32:20.054Z,9.95
2018-09-09T23:33:22.239Z,12.28
2018-09-09T23:34:24.394Z,11.10
2018-09-09T23:35:26.572Z,10.93
2018-09-09T23:36:28.689Z,10.90
2018-09-09T23:37:30.810Z,9.88
2018-09-09T23:38:32.977Z,13.53
2018-09-09T23:39:35.091Z,10.80
2018-09-09T23:40:37.239Z,13.13
2018-09-09T23:41:39.369Z,11.50
2018-09-09T23:42:41.578Z,9.58
2018-09-09T23:43:43.768Z,13.90
2018-09-09T23:44:45.913Z,11.95
2018-09-09T23:45:48.317Z,10.55
2018-09-09T23:46:50.453Z,12.03
2018-09-09T23:47:52.557Z,12.73
2018-09-09T23:48:54.707Z,11.28
2018-09-09T23:49:56.861Z,10.98
2018-09-09T23:50:58.977Z,9.85
2018-09-09T23:52:01.100Z,10.35
2018-09-09T23:53:03.275Z,10.80
2018-09-09T23:54:05.506Z,11.60
2018-09-09T23:55:07.669Z,10.40
2018-09-09T23:56:09.788Z,11.75
2018-09-09T23:57:11.923Z,11.22
2018-09-09T23:58:14.049Z,9.93
2018-09-09T23:59:16.185Z,10.90
